Time,TemperatureF,DewpointF,PressureIn,WindDirection,WindDirectionDegrees,WindSpeedMPH,WindSpeedGustMPH,Humidity,HourlyPrecipIn,Conditions,Clouds,dailyrainin,SoftwareType,DateUTC
2013-05-10 00:01:00,56.3,50.9,29.90,NNE,13,0.0,0.0,82,0.00,,---,0.00,VWS V14.01,2013-05-10 05:01:00,
2013-05-10 00:06:00,57.0,51.9,29.90,NNE,13,0.0,2.0,83,0.00,,---,0.00,VWS V14.01,2013-05-10 05:06:00,
2013-05-10 00:11:00,57.3,52.2,29.90,NNE,12,0.0,2.0,83,0.00,,---,0.00,VWS V14.01,2013-05-10 05:11:00,
2013-05-10 00:16:00,58.0,53.2,29.90,NNE,12,0.0,2.0,84,0.00,,---,0.00,VWS V14.01,2013-05-10 05:16:00,
2013-05-10 00:21:00,58.1,53.3,29.90,NNE,12,0.0,2.0,84,0.00,,---,0.00,VWS V14.01,2013-05-10 05:21:00,
2013-05-10 00:26:00,58.3,53.5,29.90,NNE,12,0.0,2.0,84,0.00,,---,0.00,VWS V14.01,2013-05-10 05:26:00,
2013-05-10 00:30:00,58.3,52.5,29.90,NNE,13,0.0,0.0,81,0.00,,---,0.12,VWS V14.01,2013-05-10 05:30:00,
2013-05-10 00:31:00,58.3,53.5,29.90,NNE,12,0.0,0.0,84,0.00,,---,0.00,VWS V14.01,2013-05-10 05:31:00,
2013-05-10 00:36:00,58.4,53.6,29.90,NNE,12,0.0,0.0,84,0.00,,---,0.00,VWS V14.01,2013-05-10 05:36:00,
2013-05-10 00:41:00,58.4,53.9,29.90,NNE,12,0.0,0.0,85,0.00,,---,0.00,VWS V14.01,2013-05-10 05:41:00,
2013-05-10 00:46:00,58.6,54.1,29.90,NNE,12,0.0,1.0,85,0.00,,---,0.00,VWS V14.01,2013-05-10 05:46:00,
2013-05-10 00:51:00,58.6,54.1,29.90,NNE,12,0.0,1.0,85,0.00,,---,0.00,VWS V14.01,2013-05-10 05:51:00,
2013-05-10 00:56:00,58.6,54.1,29.90,NNE,12,0.0,2.0,85,0.00,,---,0.00,VWS V14.01,2013-05-10 05:56:00,
2013-05-10 01:00:00,56.3,50.9,29.90,NNE,13,0.0,1.0,82,0.00,,---,0.12,VWS V14.01,2013-05-10 06:00:00,
2013-05-10 01:01:00,58.7,54.5,29.90,NNE,12,1.0,2.0,86,0.00,,---,0.00,VWS V14.01,2013-05-10 06:01:00,
2013-05-10 01:06:00,58.7,54.5,29.90,NNE,12,0.0,2.0,86,0.00,,---,0.00,VWS V14.01,2013-05-10 06:06:00,
2013-05-10 01:11:00,58.9,54.7,29.90,NNE,12,0.0,2.0,86,0.00,,---,0.00,VWS V14.01,2013-05-10 06:11:00,
2013-05-10 01:16:00,58.9,54.7,29.89,NNE,12,1.0,2.0,86,0.00,,---,0.00,VWS V14.01,2013-05-10 06:16:00,
2013-05-10 01:21:00,58.9,54.7,29.89,NNE,12,2.0,3.0,86,0.00,,---,0.00,VWS V14.01,2013-05-10 06:21:00,
2013-05-10 01:26:00,59.0,54.8,29.89,NNE,12,1.0,3.0,86,0.00,,---,0.00,VWS V14.01,2013-05-10 06:26:00,
2013-05-10 01:30:00,58.3,53.5,29.90,NNE,12,0.0,2.0,84,0.00,,---,0.00,VWS V14.01,2013-05-10 06:30:00,
2013-05-10 01:31:00,58.9,54.7,29.89,NNW,347,2.0,4.0,86,0.00,,---,0.00,VWS V14.01,2013-05-10 06:31:00,
2013-05-10 01:36:00,58.9,54.7,29.89,NNW,345,2.0,4.0,86,0.00,,---,0.00,VWS V14.01,2013-05-10 06:36:00,
2013-05-10 01:41:00,58.9,54.7,29.89,NNW,332,2.0,4.0,86,0.00,,---,0.00,VWS V14.01,2013-05-10 06:41:00,
2013-05-10 01:46:00,58.7,54.5,29.88,NNW,340,0.0,4.0,86,0.00,,---,0.00,VWS V14.01,2013-05-10 06:46:00,
2013-05-10 01:51:00,58.6,54.4,29.88,NNW,346,2.0,4.0,86,0.00,,---,0.00,VWS V14.01,2013-05-10 06:51:00,
2013-05-10 01:56:00,58.6,54.4,29.88,NNW,347,0.0,4.0,86,0.00,,---,0.00,VWS V14.01,2013-05-10 06:56:00,
2013-05-10 02:00:00,58.7,54.2,29.90,NNE,12,1.0,2.0,85,0.00,,---,0.00,VWS V14.01,2013-05-10 07:00:00,
2013-05-10 02:01:00,58.4,54.2,29.89,NNW,346,1.0,2.0,86,0.00,,---,0.00,VWS V14.01,2013-05-10 07:01:00,
2013-05-10 02:05:00,58.3,54.5,29.89,NNW,338,1.0,3.0,87,0.00,,---,0.00,VWS V14.01,2013-05-10 07:05:00,
2013-05-10 02:10:00,58.1,54.3,29.89,NNW,340,3.0,3.0,87,0.00,,---,0.00,VWS V14.01,2013-05-10 07:10:00,
2013-05-10 02:15:00,58.0,54.2,29.89,NNW,339,2.0,4.0,87,0.00,,---,0.00,VWS V14.01,2013-05-10 07:15:00,
2013-05-10 02:20:00,58.0,54.2,29.89,NNW,331,2.0,4.0,87,0.00,,---,0.00,VWS V14.01,2013-05-10 07:20:00,
2013-05-10 02:25:00,58.0,54.2,29.89,NW,322,2.0,5.0,87,0.00,,---,0.00,VWS V14.01,2013-05-10 07:25:00,
2013-05-10 02:30:00,57.8,54.0,29.89,NNW,340,2.0,2.0,87,0.00,,---,0.00,VWS V14.01,2013-05-10 07:30:00,
2013-05-10 02:35:00,57.8,54.0,29.89,NW,323,1.0,5.0,87,0.00,,---,0.00,VWS V14.01,2013-05-10 07:35:00,
2013-05-10 02:40:00,57.6,53.8,29.89,NW,323,0.0,6.0,87,0.00,,---,0.00,VWS V14.01,2013-05-10 07:40:00,
2013-05-10 02:45:00,57.5,53.7,29.89,NNW,346,4.0,6.0,87,0.00,,---,0.00,VWS V14.01,2013-05-10 07:45:00,
2013-05-10 02:50:00,57.3,53.5,29.89,NNW,331,1.0,7.0,87,0.00,,---,0.00,VWS V14.01,2013-05-10 07:50:00,
2013-05-10 02:55:00,57.2,53.4,29.89,NNW,331,2.0,7.0,87,0.00,,---,0.00,VWS V14.01,2013-05-10 07:55:00,
2013-05-10 03:00:00,57.0,53.5,29.90,NW,319,1.0,1.0,88,0.00,,---,0.00,VWS V14.01,2013-05-10 08:00:00,
2013-05-10 03:05:00,57.0,53.5,29.90,NNW,340,2.0,6.0,88,0.00,,---,0.00,VWS V14.01,2013-05-10 08:05:00,
2013-05-10 03:10:00,56.9,53.4,29.90,North,355,3.0,6.0,88,0.00,,---,0.00,VWS V14.01,2013-05-10 08:10:00,
2013-05-10 03:15:00,56.7,53.2,29.90,NNW,328,1.0,6.0,88,0.00,,---,0.00,VWS V14.01,2013-05-10 08:15:00,
2013-05-10 03:20:00,56.6,53.1,29.90,North,351,4.0,7.0,88,0.00,,---,0.00,VWS V14.01,2013-05-10 08:20:00,
2013-05-10 03:25:00,56.6,53.1,29.90,NW,311,4.0,7.0,88,0.00,,---,0.00,VWS V14.01,2013-05-10 08:25:00,
2013-05-10 03:30:00,56.5,53.0,29.90,NNW,335,2.0,2.0,88,0.00,,---,0.00,VWS V14.01,2013-05-10 08:30:00,
2013-05-10 03:35:00,56.5,53.3,29.90,NNW,340,3.0,5.0,89,0.00,,---,0.00,VWS V14.01,2013-05-10 08:35:00,
2013-05-10 03:40:00,56.3,53.1,29.90,NNW,340,1.0,5.0,89,0.00,,---,0.00,VWS V14.01,2013-05-10 08:40:00,
2013-05-10 03:45:00,56.2,53.0,29.90,NNW,340,0.0,5.0,89,0.00,,---,0.00,VWS V14.01,2013-05-10 08:45:00,
2013-05-10 03:50:00,56.2,53.0,29.90,NNW,327,2.0,5.0,89,0.00,,---,0.00,VWS V14.01,2013-05-10 08:50:00,
2013-05-10 03:55:00,56.2,53.0,29.90,NNW,329,1.0,5.0,89,0.00,,---,0.00,VWS V14.01,2013-05-10 08:55:00,
2013-05-10 04:00:00,56.3,53.1,29.90,NNW,339,4.0,6.0,89,0.00,,---,0.00,VWS V14.01,2013-05-10 09:00:00,
2013-05-10 04:05:00,56.3,53.1,29.90,NNW,327,3.0,6.0,89,0.00,,---,0.00,VWS V14.01,2013-05-10 09:05:00,
2013-05-10 04:10:00,56.3,53.4,29.90,NNW,334,1.0,6.0,90,0.00,,---,0.00,VWS V14.01,2013-05-10 09:10:00,
2013-05-10 04:15:00,56.5,53.6,29.90,NNW,341,0.0,6.0,90,0.00,,---,0.00,VWS V14.01,2013-05-10 09:15:00,
2013-05-10 04:20:00,56.5,53.6,29.90,NNW,340,3.0,6.0,90,0.00,,---,0.00,VWS V14.01,2013-05-10 09:20:00,
2013-05-10 04:25:00,56.6,53.7,29.90,NNW,339,2.0,6.0,90,0.00,,---,0.00,VWS V14.01,2013-05-10 09:25:00,
2013-05-10 04:30:00,56.6,53.7,29.91,NNW,341,0.0,2.0,90,0.00,,---,0.00,VWS V14.01,2013-05-10 09:30:00,
2013-05-10 04:35:00,56.6,53.7,29.91,NNW,343,2.0,7.0,90,0.00,,---,0.00,VWS V14.01,2013-05-10 09:35:00,
2013-05-10 04:40:00,56.6,53.7,29.91,NNW,333,4.0,7.0,90,0.00,,---,0.00,VWS V14.01,2013-05-10 09:40:00,
2013-05-10 04:45:00,56.5,53.6,29.91,NNW,334,3.0,7.0,90,0.00,,---,0.00,VWS V14.01,2013-05-10 09:45:00,
2013-05-10 04:50:00,56.3,53.4,29.91,NNW,345,2.0,7.0,90,0.00,,---,0.00,VWS V14.01,2013-05-10 09:50:00,
2013-05-10 04:55:00,56.2,53.3,29.91,NNW,345,2.0,7.0,90,0.00,,---,0.00,VWS V14.01,2013-05-10 09:55:00,
2013-05-10 05:00:00,56.0,53.1,29.91,NNW,346,0.0,1.0,90,0.00,,---,0.00,VWS V14.01,2013-05-10 10:00:00,
2013-05-10 05:05:00,56.0,53.4,29.91,NNW,341,3.0,5.0,91,0.00,,---,0.00,VWS V14.01,2013-05-10 10:05:00,
2013-05-10 05:10:00,56.0,53.4,29.91,NNW,330,3.0,5.0,91,0.00,,---,0.00,VWS V14.01,2013-05-10 10:10:00,
2013-05-10 05:15:00,56.0,53.4,29.90,NNW,336,6.0,6.0,91,0.00,,---,0.00,VWS V14.01,2013-05-10 10:15:00,
2013-05-10 05:20:00,56.2,53.6,29.90,North,349,2.0,6.0,91,0.00,,---,0.00,VWS V14.01,2013-05-10 10:20:00,
2013-05-10 05:25:00,56.2,53.6,29.90,NNW,327,0.0,6.0,91,0.00,,---,0.00,VWS V14.01,2013-05-10 10:25:00,
2013-05-10 05:30:00,56.2,53.6,29.91,NNW,346,3.0,6.0,91,0.00,,---,0.00,VWS V14.01,2013-05-10 10:30:00,
2013-05-10 05:35:00,56.2,53.6,29.91,NNW,346,0.0,4.0,91,0.00,,---,0.00,VWS V14.01,2013-05-10 10:35:00,
2013-05-10 05:40:00,56.3,53.7,29.91,North,355,3.0,9.0,91,0.00,,---,0.00,VWS V14.01,2013-05-10 10:40:00,
2013-05-10 05:45:00,56.3,53.7,29.91,North,355,2.0,9.0,91,0.00,,---,0.00,VWS V14.01,2013-05-10 10:45:00,
2013-05-10 05:50:00,56.3,53.7,29.91,North,355,5.0,9.0,91,0.00,,---,0.00,VWS V14.01,2013-05-10 10:50:00,
2013-05-10 05:55:00,56.2,53.6,29.91,North,5,5.0,9.0,91,0.00,,---,0.00,VWS V14.01,2013-05-10 10:55:00,
2013-05-10 06:00:00,56.2,53.9,29.92,NNW,344,7.0,9.0,92,0.00,,---,0.00,VWS V14.01,2013-05-10 11:00:00,
2013-05-10 06:05:00,56.2,53.9,29.92,North,5,7.0,7.0,92,0.00,,---,0.00,VWS V14.01,2013-05-10 11:05:00,
2013-05-10 06:10:00,56.3,54.0,29.92,North,360,1.0,8.0,92,0.00,,---,0.00,VWS V14.01,2013-05-10 11:10:00,
2013-05-10 06:15:00,56.2,53.9,29.91,NNW,336,7.0,10.0,92,0.00,,---,0.00,VWS V14.01,2013-05-10 11:15:00,
2013-05-10 06:20:00,56.0,53.7,29.91,North,360,7.0,10.0,92,0.00,,---,0.00,VWS V14.01,2013-05-10 11:20:00,
2013-05-10 06:25:00,55.9,53.3,29.91,North,5,11.0,11.0,91,0.00,,---,0.00,VWS V14.01,2013-05-10 11:25:00,
2013-05-10 06:30:00,55.7,53.1,29.92,NNW,347,4.0,11.0,91,0.00,,---,0.00,VWS V14.01,2013-05-10 11:30:00,
2013-05-10 06:35:00,55.7,53.4,29.92,NNW,333,7.0,9.0,92,0.00,,---,0.00,VWS V14.01,2013-05-10 11:35:00,
2013-05-10 06:40:00,55.6,53.3,29.92,North,11,5.0,9.0,92,0.00,,---,0.00,VWS V14.01,2013-05-10 11:40:00,
2013-05-10 06:45:00,55.4,52.8,29.92,North,9,4.0,9.0,91,0.00,,---,0.00,VWS V14.01,2013-05-10 11:45:00,
2013-05-10 06:50:00,55.3,52.7,29.92,North,5,7.0,9.0,91,0.00,,---,0.00,VWS V14.01,2013-05-10 11:50:00,
2013-05-10 06:55:00,55.3,53.0,29.92,NNW,339,5.0,9.0,92,0.00,,---,0.00,VWS V14.01,2013-05-10 11:55:00,
2013-05-10 07:00:00,55.1,52.8,29.93,North,5,6.0,11.0,92,0.00,,---,0.00,VWS V14.01,2013-05-10 12:00:00,
2013-05-10 07:05:00,55.1,52.8,29.93,North,350,1.0,6.0,92,0.00,,---,0.00,VWS V14.01,2013-05-10 12:05:00,
2013-05-10 07:10:00,55.3,53.0,29.93,NNW,346,4.0,8.0,92,0.00,,---,0.00,VWS V14.01,2013-05-10 12:10:00,
2013-05-10 07:15:00,55.3,53.0,29.93,NNW,329,4.0,10.0,92,0.00,,---,0.00,VWS V14.01,2013-05-10 12:15:00,
2013-05-10 07:20:00,55.3,53.0,29.93,NNW,339,6.0,10.0,92,0.00,,---,0.00,VWS V14.01,2013-05-10 12:20:00,
2013-05-10 07:25:00,55.3,53.0,29.93,NNE,16,7.0,12.0,92,0.00,,---,0.00,VWS V14.01,2013-05-10 12:25:00,
2013-05-10 07:30:00,55.3,53.0,29.93,NW,318,6.0,12.0,92,0.00,,---,0.00,VWS V14.01,2013-05-10 12:30:00,
2013-05-10 07:35:00,55.3,53.0,29.93,NNW,340,3.0,11.0,92,0.00,,---,0.00,VWS V14.01,2013-05-10 12:35:00,
2013-05-10 07:40:00,55.3,53.0,29.93,NW,319,7.0,11.0,92,0.00,,---,0.00,VWS V14.01,2013-05-10 12:40:00,
2013-05-10 07:45:00,55.4,53.1,29.93,North,360,6.0,11.0,92,0.00,,---,0.00,VWS V14.01,2013-05-10 12:45:00,
2013-05-10 07:50:00,55.6,53.3,29.93,NW,311,7.0,11.0,92,0.00,,---,0.00,VWS V14.01,2013-05-10 12:50:00,
2013-05-10 07:55:00,55.7,53.4,29.93,NNW,346,11.0,11.0,92,0.00,,---,0.00,VWS V14.01,2013-05-10 12:55:00,
2013-05-10 08:00:00,55.7,53.4,29.94,North,360,4.0,11.0,92,0.00,,---,0.00,VWS V14.01,2013-05-10 13:00:00,
2013-05-10 08:05:00,55.9,53.3,29.94,North,5,4.0,9.0,91,0.00,,---,0.00,VWS V14.01,2013-05-10 13:05:00,
2013-05-10 08:10:00,55.9,53.3,29.94,North,350,7.0,10.0,91,0.00,,---,0.00,VWS V14.01,2013-05-10 13:10:00,
2013-05-10 08:15:00,55.9,53.3,29.94,NNE,22,8.0,12.0,91,0.00,,---,0.00,VWS V14.01,2013-05-10 13:15:00,
2013-05-10 08:20:00,55.9,53.3,29.94,North,9,7.0,12.0,91,0.00,,---,0.00,VWS V14.01,2013-05-10 13:20:00,
2013-05-10 08:25:00,55.9,53.3,29.94,NNW,340,7.0,12.0,91,0.00,,---,0.00,VWS V14.01,2013-05-10 13:25:00,
2013-05-10 08:30:00,55.9,53.3,29.94,North,355,2.0,12.0,91,0.00,,---,0.00,VWS V14.01,2013-05-10 13:30:00,
2013-05-10 08:35:00,55.9,53.3,29.94,NNW,337,9.0,9.0,91,0.00,,---,0.00,VWS V14.01,2013-05-10 13:35:00,
2013-05-10 08:40:00,55.7,53.1,29.94,NNW,331,2.0,9.0,91,0.00,,---,0.00,VWS V14.01,2013-05-10 13:40:00,
2013-05-10 08:45:00,55.7,53.1,29.95,NNW,344,9.0,11.0,91,0.00,,---,0.00,VWS V14.01,2013-05-10 13:45:00,
2013-05-10 08:50:00,55.7,53.1,29.95,NNW,347,3.0,11.0,91,0.00,,---,0.00,VWS V14.01,2013-05-10 13:50:00,
2013-05-10 08:55:00,55.7,53.1,29.95,North,355,5.0,11.0,91,0.00,,---,0.00,VWS V14.01,2013-05-10 13:55:00,
2013-05-10 09:00:00,55.7,53.1,29.95,NNW,344,5.0,13.0,91,0.00,,---,0.00,VWS V14.01,2013-05-10 14:00:00,
2013-05-10 09:05:00,55.6,53.0,29.95,North,5,6.0,10.0,91,0.00,,---,0.00,VWS V14.01,2013-05-10 14:05:00,
2013-05-10 09:10:00,55.3,52.7,29.95,NNW,331,5.0,11.0,91,0.00,,---,0.00,VWS V14.01,2013-05-10 14:10:00,
2013-05-10 09:15:00,55.1,52.2,29.96,NNW,335,8.0,11.0,90,0.00,,---,0.00,VWS V14.01,2013-05-10 14:15:00,
2013-05-10 09:20:00,55.0,52.1,29.96,NNE,18,5.0,11.0,90,0.00,,---,0.00,VWS V14.01,2013-05-10 14:20:00,
2013-05-10 09:25:00,55.0,52.1,29.96,NNW,341,5.0,11.0,90,0.00,,---,0.00,VWS V14.01,2013-05-10 14:25:00,
2013-05-10 09:30:00,55.1,52.5,29.97,NNW,339,3.0,11.0,91,0.00,,---,0.00,VWS V14.01,2013-05-10 14:30:00,
2013-05-10 09:35:00,55.1,52.2,29.97,North,355,5.0,10.0,90,0.00,,---,0.00,VWS V14.01,2013-05-10 14:35:00,
2013-05-10 09:40:00,55.1,52.2,29.97,North,5,5.0,10.0,90,0.00,,---,0.00,VWS V14.01,2013-05-10 14:40:00,
2013-05-10 09:45:00,55.3,52.4,29.97,North,355,5.0,12.0,90,0.00,,---,0.00,VWS V14.01,2013-05-10 14:45:00,
2013-05-10 09:50:00,55.4,52.5,29.97,North,11,5.0,12.0,90,0.00,,---,0.00,VWS V14.01,2013-05-10 14:50:00,
2013-05-10 09:55:00,55.6,52.7,29.97,North,351,3.0,12.0,90,0.00,,---,0.00,VWS V14.01,2013-05-10 14:55:00,
2013-05-10 10:00:00,55.6,52.7,29.98,North,360,3.0,12.0,90,0.00,,---,0.00,VWS V14.01,2013-05-10 15:00:00,
2013-05-10 10:05:00,55.6,52.7,29.98,NNW,345,0.0,7.0,90,0.00,,---,0.00,VWS V14.01,2013-05-10 15:05:00,
2013-05-10 10:10:00,55.7,52.8,29.98,North,351,5.0,7.0,90,0.00,,---,0.00,VWS V14.01,2013-05-10 15:10:00,
2013-05-10 10:15:00,55.9,52.7,29.99,NW,323,8.0,8.0,89,0.00,,---,0.00,VWS V14.01,2013-05-10 15:15:00,
2013-05-10 10:20:00,55.9,52.7,29.99,North,9,4.0,8.0,89,0.00,,---,0.00,VWS V14.01,2013-05-10 15:20:00,
2013-05-10 10:25:00,55.9,52.7,29.99,NNW,341,0.0,8.0,89,0.00,,---,0.00,VWS V14.01,2013-05-10 15:25:00,
2013-05-10 10:30:00,55.9,52.7,30.00,NNW,339,1.0,8.0,89,0.00,,---,0.00,VWS V14.01,2013-05-10 15:30:00,
2013-05-10 10:35:00,56.0,52.8,30.00,North,9,6.0,7.0,89,0.00,,---,0.00,VWS V14.01,2013-05-10 15:35:00,
2013-05-10 10:40:00,56.0,52.8,30.00,NNW,342,3.0,8.0,89,0.00,,---,0.00,VWS V14.01,2013-05-10 15:40:00,
2013-05-10 10:45:00,56.0,52.5,30.00,NNE,24,4.0,8.0,88,0.00,,---,0.00,VWS V14.01,2013-05-10 15:45:00,
2013-05-10 10:50:00,55.9,52.4,30.00,North,349,4.0,8.0,88,0.00,,---,0.00,VWS V14.01,2013-05-10 15:50:00,
2013-05-10 10:55:00,55.9,52.4,30.00,NNW,345,6.0,10.0,88,0.00,,---,0.00,VWS V14.01,2013-05-10 15:55:00,
2013-05-10 11:00:00,56.0,52.5,30.00,NNE,20,6.0,10.0,88,0.00,,---,0.00,VWS V14.01,2013-05-10 16:00:00,
2013-05-10 11:05:00,56.0,52.5,30.00,NNW,333,6.0,9.0,88,0.00,,---,0.00,VWS V14.01,2013-05-10 16:05:00,
2013-05-10 11:10:00,56.0,52.5,30.00,NNW,347,3.0,9.0,88,0.00,,---,0.00,VWS V14.01,2013-05-10 16:10:00,
2013-05-10 11:15:00,56.2,52.7,30.00,NNE,13,5.0,9.0,88,0.00,,---,0.00,VWS V14.01,2013-05-10 16:15:00,
2013-05-10 11:20:00,56.0,52.5,30.00,NNW,327,3.0,9.0,88,0.00,,---,0.00,VWS V14.01,2013-05-10 16:20:00,
2013-05-10 11:25:00,56.2,52.7,30.00,NW,316,2.0,9.0,88,0.00,,---,0.00,VWS V14.01,2013-05-10 16:25:00,
2013-05-10 11:30:00,56.0,52.5,30.01,NNW,338,5.0,10.0,88,0.00,,---,0.00,VWS V14.01,2013-05-10 16:30:00,
2013-05-10 11:35:00,55.9,52.4,30.01,North,355,5.0,8.0,88,0.00,,---,0.00,VWS V14.01,2013-05-10 16:35:00,
2013-05-10 11:40:00,55.9,52.4,30.01,NNW,336,6.0,9.0,88,0.00,,---,0.00,VWS V14.01,2013-05-10 16:40:00,
2013-05-10 11:45:00,55.6,52.1,30.01,NNW,334,3.0,11.0,88,0.00,,---,0.00,VWS V14.01,2013-05-10 16:45:00,
2013-05-10 11:50:00,55.6,52.1,30.01,NNW,338,5.0,11.0,88,0.00,,---,0.00,VWS V14.01,2013-05-10 16:50:00,
2013-05-10 11:55:00,55.6,52.1,30.01,NNW,348,10.0,12.0,88,0.00,,---,0.00,VWS V14.01,2013-05-10 16:55:00,
2013-05-10 12:00:00,55.7,52.2,30.01,North,5,6.0,12.0,88,0.00,,---,0.00,VWS V14.01,2013-05-10 17:00:00,
2013-05-10 12:05:00,55.9,52.4,30.01,NNW,343,4.0,12.0,88,0.00,,---,0.00,VWS V14.01,2013-05-10 17:05:00,
2013-05-10 12:10:00,56.2,52.7,30.01,North,355,5.0,12.0,88,0.00,,---,0.00,VWS V14.01,2013-05-10 17:10:00,
2013-05-10 12:15:00,56.2,52.7,30.01,NW,307,6.0,15.0,88,0.00,,---,0.00,VWS V14.01,2013-05-10 17:15:00,
2013-05-10 12:20:00,56.6,53.1,30.01,NNE,13,8.0,15.0,88,0.00,,---,0.00,VWS V14.01,2013-05-10 17:20:00,
2013-05-10 12:25:00,56.7,52.9,30.01,NNW,341,8.0,15.0,87,0.00,,---,0.00,VWS V14.01,2013-05-10 17:25:00,
2013-05-10 12:30:00,57.2,53.4,30.02,North,355,7.0,15.0,87,0.00,,---,0.00,VWS V14.01,2013-05-10 17:30:00,
2013-05-10 12:35:00,57.3,53.5,30.02,NNW,342,3.0,10.0,87,0.00,,---,0.00,VWS V14.01,2013-05-10 17:35:00,
2013-05-10 12:40:00,57.5,53.7,30.02,NNW,347,5.0,10.0,87,0.00,,---,0.00,VWS V14.01,2013-05-10 17:40:00,
2013-05-10 12:45:00,57.5,53.7,30.02,North,350,0.0,10.0,87,0.00,,---,0.00,VWS V14.01,2013-05-10 17:45:00,
2013-05-10 12:50:00,57.6,53.8,30.02,NNW,333,0.0,10.0,87,0.00,,---,0.00,VWS V14.01,2013-05-10 17:50:00,
2013-05-10 12:55:00,57.6,53.5,30.02,NNW,348,4.0,10.0,86,0.00,,---,0.00,VWS V14.01,2013-05-10 17:55:00,
2013-05-10 13:00:00,58.0,54.2,30.01,NW,324,4.0,10.0,87,0.00,,---,0.00,VWS V14.01,2013-05-10 18:00:00,
2013-05-10 13:05:00,58.1,53.9,30.01,North,360,3.0,7.0,86,0.00,,---,0.00,VWS V14.01,2013-05-10 18:05:00,
2013-05-10 13:10:00,58.4,54.2,30.01,NNW,344,6.0,12.0,86,0.00,,---,0.00,VWS V14.01,2013-05-10 18:10:00,
2013-05-10 13:15:00,58.1,53.9,30.01,North,360,1.0,12.0,86,0.00,,---,0.00,VWS V14.01,2013-05-10 18:15:00,
2013-05-10 13:20:00,58.1,53.6,30.01,NNW,329,4.0,12.0,85,0.00,,---,0.00,VWS V14.01,2013-05-10 18:20:00,
2013-05-10 13:25:00,58.0,53.5,30.01,North,360,7.0,12.0,85,0.00,,---,0.00,VWS V14.01,2013-05-10 18:25:00,
2013-05-10 13:30:00,58.1,53.6,30.00,NNW,343,6.0,12.0,85,0.00,,---,0.00,VWS V14.01,2013-05-10 18:30:00,
2013-05-10 13:35:00,58.4,53.9,30.00,North,360,5.0,11.0,85,0.00,,---,0.00,VWS V14.01,2013-05-10 18:35:00,
2013-05-10 13:40:00,58.7,54.2,30.00,NNE,33,4.0,11.0,85,0.00,,---,0.00,VWS V14.01,2013-05-10 18:40:00,
2013-05-10 13:45:00,58.7,53.9,30.00,NNE,14,6.0,12.0,84,0.00,,---,0.00,VWS V14.01,2013-05-10 18:45:00,
2013-05-10 13:50:00,58.6,53.8,30.00,North,5,7.0,12.0,84,0.00,,---,0.00,VWS V14.01,2013-05-10 18:50:00,
2013-05-10 13:55:00,58.7,53.9,30.00,North,5,4.0,13.0,84,0.00,,---,0.00,VWS V14.01,2013-05-10 18:55:00,
2013-05-10 14:00:00,58.6,53.5,30.00,North,355,7.0,13.0,83,0.00,,---,0.00,VWS V14.01,2013-05-10 19:00:00,
2013-05-10 14:05:00,58.4,53.3,30.00,North,360,6.0,11.0,83,0.00,,---,0.00,VWS V14.01,2013-05-10 19:05:00,
2013-05-10 14:10:00,58.4,53.3,30.00,North,5,5.0,11.0,83,0.00,,---,0.00,VWS V14.01,2013-05-10 19:10:00,
2013-05-10 14:15:00,58.6,53.5,30.00,North,5,4.0,11.0,83,0.00,,---,0.00,VWS V14.01,2013-05-10 19:15:00,
2013-05-10 14:20:00,58.6,53.1,30.00,NNW,343,9.0,11.0,82,0.00,,---,0.00,VWS V14.01,2013-05-10 19:20:00,
2013-05-10 14:25:00,58.4,52.9,30.00,NNW,331,7.0,12.0,82,0.00,,---,0.00,VWS V14.01,2013-05-10 19:25:00,
2013-05-10 14:30:00,58.3,52.8,30.00,NNE,19,5.0,12.0,82,0.00,,---,0.00,VWS V14.01,2013-05-10 19:30:00,
2013-05-10 14:35:00,58.1,52.6,30.00,North,5,8.0,10.0,82,0.00,,---,0.00,VWS V14.01,2013-05-10 19:35:00,
2013-05-10 14:40:00,58.6,53.1,30.00,North,360,8.0,10.0,82,0.00,,---,0.00,VWS V14.01,2013-05-10 19:40:00,
2013-05-10 14:45:00,59.0,53.5,30.00,WNW,299,2.0,13.0,82,0.00,,---,0.00,VWS V14.01,2013-05-10 19:45:00,
2013-05-10 14:50:00,59.3,53.5,30.00,North,5,5.0,13.0,81,0.00,,---,0.00,VWS V14.01,2013-05-10 19:50:00,
2013-05-10 14:55:00,59.5,53.7,30.00,NNW,343,8.0,13.0,81,0.00,,---,0.00,VWS V14.01,2013-05-10 19:55:00,
2013-05-10 15:00:00,59.5,53.7,30.00,NNW,334,12.0,13.0,81,0.00,,---,0.00,VWS V14.01,2013-05-10 20:00:00,
2013-05-10 15:05:00,59.5,53.7,30.00,NNE,12,7.0,11.0,81,0.00,,---,0.00,VWS V14.01,2013-05-10 20:05:00,
2013-05-10 15:10:00,59.9,54.1,30.00,NE,49,9.0,12.0,81,0.00,,---,0.00,VWS V14.01,2013-05-10 20:10:00,
2013-05-10 15:15:00,60.5,54.3,30.00,WNW,291,7.0,12.0,80,0.00,,---,0.00,VWS V14.01,2013-05-10 20:15:00,
2013-05-10 15:20:00,60.9,54.7,30.00,WNW,285,4.0,12.0,80,0.00,,---,0.00,VWS V14.01,2013-05-10 20:20:00,
2013-05-10 15:25:00,60.9,54.3,30.00,North,350,6.0,12.0,79,0.00,,---,0.00,VWS V14.01,2013-05-10 20:25:00,
2013-05-10 15:30:00,60.5,54.0,30.00,NNW,345,6.0,12.0,79,0.00,,---,0.00,VWS V14.01,2013-05-10 20:30:00,
2013-05-10 15:35:00,60.4,53.9,30.00,North,355,4.0,12.0,79,0.00,,---,0.00,VWS V14.01,2013-05-10 20:35:00,
2013-05-10 15:40:00,60.5,54.0,30.00,NNW,333,5.0,12.0,79,0.00,,---,0.00,VWS V14.01,2013-05-10 20:40:00,
2013-05-10 15:45:00,60.7,53.8,30.00,North,10,5.0,12.0,78,0.00,,---,0.00,VWS V14.01,2013-05-10 20:45:00,
2013-05-10 15:50:00,61.0,54.1,30.00,NNW,340,6.0,12.0,78,0.00,,---,0.00,VWS V14.01,2013-05-10 20:50:00,
2013-05-10 15:55:00,61.2,54.3,30.00,North,360,1.0,12.0,78,0.00,,---,0.00,VWS V14.01,2013-05-10 20:55:00,
2013-05-10 16:00:00,61.3,54.0,29.99,North,360,7.0,12.0,77,0.00,,---,0.00,VWS V14.01,2013-05-10 21:00:00,
2013-05-10 16:05:00,61.3,54.0,29.99,NNW,338,6.0,10.0,77,0.00,,---,0.00,VWS V14.01,2013-05-10 21:05:00,
2013-05-10 16:10:00,61.8,54.5,29.99,North,5,4.0,10.0,77,0.00,,---,0.00,VWS V14.01,2013-05-10 21:10:00,
2013-05-10 16:15:00,62.6,55.3,29.99,NW,321,3.0,12.0,77,0.00,,---,0.00,VWS V14.01,2013-05-10 21:15:00,
2013-05-10 16:20:00,63.4,55.7,29.99,NNW,344,7.0,12.0,76,0.00,,---,0.00,VWS V14.01,2013-05-10 21:20:00,
2013-05-10 16:25:00,63.4,55.3,29.99,North,11,7.0,12.0,75,0.00,,---,0.00,VWS V14.01,2013-05-10 21:25:00,
2013-05-10 16:30:00,63.1,54.7,29.99,NW,320,5.0,12.0,74,0.00,,---,0.00,VWS V14.01,2013-05-10 21:30:00,
2013-05-10 16:35:00,63.1,54.7,29.99,North,350,2.0,8.0,74,0.00,,---,0.00,VWS V14.01,2013-05-10 21:35:00,
2013-05-10 16:40:00,63.4,54.6,29.99,North,355,6.0,9.0,73,0.00,,---,0.00,VWS V14.01,2013-05-10 21:40:00,
2013-05-10 16:45:00,63.4,54.6,29.99,NNW,340,6.0,9.0,73,0.00,,---,0.00,VWS V14.01,2013-05-10 21:45:00,
2013-05-10 16:50:00,63.4,54.6,29.99,North,5,2.0,11.0,73,0.00,,---,0.00,VWS V14.01,2013-05-10 21:50:00,
2013-05-10 16:55:00,63.9,55.1,29.99,NE,34,3.0,11.0,73,0.00,,---,0.00,VWS V14.01,2013-05-10 21:55:00,
2013-05-10 16:58:00,64.0,55.2,29.99,North,5,2.0,11.0,73,0.00,,---,0.00,VWS V14.01,2013-05-10 21:58:00,
2013-05-10 17:00:00,61.3,54.0,29.99,NNW,346,4.0,12.0,77,0.00,,---,0.00,VWS V14.01,2013-05-10 22:00:00,
2013-05-10 17:03:00,64.0,54.8,29.99,NE,47,2.0,5.0,72,0.00,,---,0.00,VWS V14.01,2013-05-10 22:03:00,
2013-05-10 17:08:00,63.9,54.7,29.99,NE,47,5.0,7.0,72,0.00,,---,0.00,VWS V14.01,2013-05-10 22:08:00,
2013-05-10 17:13:00,63.9,54.7,29.99,NNE,27,4.0,9.0,72,0.00,,---,0.00,VWS V14.01,2013-05-10 22:13:00,
2013-05-10 17:18:00,64.2,54.6,29.99,NE,49,5.0,9.0,71,0.00,,---,0.00,VWS V14.01,2013-05-10 22:18:00,
2013-05-10 17:23:00,64.5,54.5,29.99,NE,50,2.0,9.0,70,0.00,,---,0.00,VWS V14.01,2013-05-10 22:23:00,
2013-05-10 17:28:00,64.2,54.2,29.99,NNE,19,3.0,9.0,70,0.00,,---,0.00,VWS V14.01,2013-05-10 22:28:00,
2013-05-10 17:30:00,63.1,54.7,29.99,NNE,32,5.0,12.0,74,0.00,,---,0.00,VWS V14.01,2013-05-10 22:30:00,
2013-05-10 17:33:00,64.0,53.6,29.99,NNE,31,4.0,7.0,69,0.00,,---,0.00,VWS V14.01,2013-05-10 22:33:00,
2013-05-10 17:38:00,64.2,53.8,29.99,NNW,339,5.0,9.0,69,0.00,,---,0.00,VWS V14.01,2013-05-10 22:38:00,
2013-05-10 17:43:00,64.2,53.4,29.99,NE,49,6.0,10.0,68,0.00,,---,0.00,VWS V14.01,2013-05-10 22:43:00,
2013-05-10 17:48:00,64.2,53.4,29.99,North,355,7.0,11.0,68,0.00,,---,0.00,VWS V14.01,2013-05-10 22:48:00,
2013-05-10 17:53:00,64.0,53.2,29.99,North,5,8.0,11.0,68,0.00,,---,0.00,VWS V14.01,2013-05-10 22:53:00,
2013-05-10 17:58:00,63.9,52.7,29.99,NNE,23,4.0,11.0,67,0.00,,---,0.00,VWS V14.01,2013-05-10 22:58:00,
2013-05-10 18:00:00,64.2,55.0,29.99,NE,48,4.0,11.0,72,0.00,,---,0.00,VWS V14.01,2013-05-10 23:00:00,
2013-05-10 18:03:00,64.3,53.1,29.98,NNW,344,3.0,7.0,67,0.00,,---,0.00,VWS V14.01,2013-05-10 23:03:00,
2013-05-10 18:08:00,64.8,53.2,29.98,NW,319,6.0,10.0,66,0.00,,---,0.00,VWS V14.01,2013-05-10 23:08:00,
2013-05-10 18:13:00,65.0,53.0,29.98,North,5,7.0,13.0,65,0.00,,---,0.00,VWS V14.01,2013-05-10 23:13:00,
2013-05-10 18:18:00,65.0,52.5,29.98,North,350,9.0,13.0,64,0.00,,---,0.00,VWS V14.01,2013-05-10 23:18:00,
2013-05-10 18:23:00,65.0,52.5,29.98,North,5,6.0,13.0,64,0.00,,---,0.00,VWS V14.01,2013-05-10 23:23:00,
2013-05-10 18:28:00,65.2,52.7,29.98,North,360,6.0,13.0,64,0.00,,---,0.00,VWS V14.01,2013-05-10 23:28:00,
2013-05-10 18:30:00,64.0,54.0,29.99,North,10,6.0,9.0,70,0.00,,---,0.00,VWS V14.01,2013-05-10 23:30:00,
2013-05-10 18:33:00,64.8,51.9,29.98,NNW,344,4.0,6.0,63,0.00,,---,0.00,VWS V14.01,2013-05-10 23:33:00,
2013-05-10 18:38:00,64.3,51.5,29.98,North,11,5.0,10.0,63,0.00,,---,0.00,VWS V14.01,2013-05-10 23:38:00,
2013-05-10 18:43:00,64.2,51.4,29.98,NNW,346,2.0,10.0,63,0.00,,---,0.00,VWS V14.01,2013-05-10 23:43:00,
2013-05-10 18:48:00,64.3,51.0,29.98,North,355,7.0,10.0,62,0.00,,---,0.00,VWS V14.01,2013-05-10 23:48:00,
2013-05-10 18:53:00,64.3,51.0,29.98,NNW,336,1.0,10.0,62,0.00,,---,0.00,VWS V14.01,2013-05-10 23:53:00,
2013-05-10 18:58:00,64.3,50.6,29.98,NNE,15,5.0,10.0,61,0.00,,---,0.00,VWS V14.01,2013-05-10 23:58:00,
2013-05-10 19:00:00,64.0,52.8,29.98,North,5,5.0,11.0,67,0.00,,---,0.00,VWS V14.01,2013-05-11 00:00:00,
2013-05-10 19:03:00,64.3,50.6,29.98,NNW,348,3.0,7.0,61,0.00,,---,0.00,VWS V14.01,2013-05-11 00:03:00,
2013-05-10 19:08:00,64.2,50.0,29.98,NNW,334,7.0,8.0,60,0.00,,---,0.00,VWS V14.01,2013-05-11 00:08:00,
2013-05-10 19:13:00,64.0,49.8,29.98,NNW,335,1.0,8.0,60,0.00,,---,0.00,VWS V14.01,2013-05-11 00:13:00,
2013-05-10 19:18:00,63.9,49.8,29.98,NNW,348,3.0,8.0,60,0.00,,---,0.00,VWS V14.01,2013-05-11 00:18:00,
2013-05-10 19:23:00,63.7,49.6,29.98,North,360,5.0,8.0,60,0.00,,---,0.00,VWS V14.01,2013-05-11 00:23:00,
2013-05-10 19:28:00,63.5,48.9,29.98,North,360,6.0,8.0,59,0.00,,---,0.00,VWS V14.01,2013-05-11 00:28:00,
2013-05-10 19:30:00,65.0,52.1,29.98,NE,36,5.0,13.0,63,0.00,,---,0.00,VWS V14.01,2013-05-11 00:30:00,
2013-05-10 19:33:00,63.5,48.9,29.98,North,355,1.0,6.0,59,0.00,,---,0.00,VWS V14.01,2013-05-11 00:33:00,
2013-05-10 19:38:00,63.2,48.7,29.98,NNW,338,1.0,6.0,59,0.00,,---,0.00,VWS V14.01,2013-05-11 00:38:00,
2013-05-10 19:43:00,63.1,48.6,29.98,North,5,2.0,6.0,59,0.00,,---,0.00,VWS V14.01,2013-05-11 00:43:00,
2013-05-10 19:48:00,62.9,48.4,29.98,North,360,1.0,6.0,59,0.00,,---,0.00,VWS V14.01,2013-05-11 00:48:00,
2013-05-10 19:53:00,62.7,48.2,29.98,North,360,0.0,6.0,59,0.00,,---,0.00,VWS V14.01,2013-05-11 00:53:00,
2013-05-10 19:58:00,62.4,47.9,29.98,North,360,0.0,6.0,59,0.00,,---,0.00,VWS V14.01,2013-05-11 00:58:00,
2013-05-10 20:00:00,64.3,50.6,29.98,NNW,342,6.0,10.0,61,0.00,,---,0.00,VWS V14.01,2013-05-11 01:00:00,
2013-05-10 20:03:00,62.1,48.1,29.98,North,360,0.0,0.0,60,0.00,,---,0.00,VWS V14.01,2013-05-11 01:03:00,
2013-05-10 20:08:00,61.6,47.6,29.98,North,360,0.0,1.0,60,0.00,,---,0.00,VWS V14.01,2013-05-11 01:08:00,
2013-05-10 20:13:00,61.3,47.3,29.98,North,360,0.0,1.0,60,0.00,,---,0.00,VWS V14.01,2013-05-11 01:13:00,
2013-05-10 20:18:00,60.9,46.9,29.98,North,360,0.0,1.0,60,0.00,,---,0.00,VWS V14.01,2013-05-11 01:18:00,
2013-05-10 20:23:00,60.5,46.6,29.98,North,360,0.0,1.0,60,0.00,,---,0.00,VWS V14.01,2013-05-11 01:23:00,
2013-05-10 20:28:00,60.1,46.6,29.98,North,360,0.0,1.0,61,0.00,,---,0.00,VWS V14.01,2013-05-11 01:28:00,
2013-05-10 20:30:00,63.5,48.9,29.98,NNW,339,6.0,8.0,59,0.00,,---,0.00,VWS V14.01,2013-05-11 01:30:00,
2013-05-10 20:33:00,59.6,46.2,29.98,North,360,0.0,0.0,61,0.00,,---,0.00,VWS V14.01,2013-05-11 01:33:00,
2013-05-10 20:38:00,59.2,45.8,29.98,North,360,0.0,0.0,61,0.00,,---,0.00,VWS V14.01,2013-05-11 01:38:00,
2013-05-10 20:43:00,58.6,45.6,29.98,North,360,0.0,0.0,62,0.00,,---,0.00,VWS V14.01,2013-05-11 01:43:00,
2013-05-10 20:48:00,58.0,45.1,29.98,North,360,0.0,0.0,62,0.00,,---,0.00,VWS V14.01,2013-05-11 01:48:00,
2013-05-10 20:53:00,57.2,44.7,29.98,North,360,0.0,0.0,63,0.00,,---,0.00,VWS V14.01,2013-05-11 01:53:00,
2013-05-10 20:58:00,56.5,44.1,29.98,North,360,0.0,0.0,63,0.00,,---,0.00,VWS V14.01,2013-05-11 01:58:00,
2013-05-10 21:00:00,62.3,47.8,29.98,North,360,0.0,6.0,59,0.00,,---,0.00,VWS V14.01,2013-05-11 02:00:00,
2013-05-10 21:03:00,55.9,43.9,29.99,North,360,0.0,0.0,64,0.00,,---,0.00,VWS V14.01,2013-05-11 02:03:00,
2013-05-10 21:08:00,55.3,43.3,29.99,North,360,0.0,0.0,64,0.00,,---,0.00,VWS V14.01,2013-05-11 02:08:00,
2013-05-10 21:13:00,54.7,42.8,29.99,North,360,0.0,0.0,64,0.00,,---,0.00,VWS V14.01,2013-05-11 02:13:00,
2013-05-10 21:18:00,54.1,42.6,30.00,North,360,0.0,0.0,65,0.00,,---,0.00,VWS V14.01,2013-05-11 02:18:00,
2013-05-10 21:23:00,53.6,42.5,30.00,North,360,0.0,0.0,66,0.00,,---,0.00,VWS V14.01,2013-05-11 02:23:00,
2013-05-10 21:28:00,53.2,42.2,30.00,North,360,0.0,0.0,66,0.00,,---,0.00,VWS V14.01,2013-05-11 02:28:00,
2013-05-10 21:30:00,59.9,46.4,29.98,North,360,0.0,1.0,61,0.00,,---,0.00,VWS V14.01,2013-05-11 02:30:00,
2013-05-10 21:33:00,52.8,42.2,30.00,North,360,0.0,0.0,67,0.00,,---,0.00,VWS V14.01,2013-05-11 02:33:00,
2013-05-10 21:38:00,52.2,41.6,30.00,North,360,0.0,0.0,67,0.00,,---,0.00,VWS V14.01,2013-05-11 02:38:00,
2013-05-10 21:43:00,51.9,41.7,30.00,North,360,0.0,0.0,68,0.00,,---,0.00,VWS V14.01,2013-05-11 02:43:00,
2013-05-10 21:48:00,51.6,41.4,30.01,North,360,0.0,0.0,68,0.00,,---,0.00,VWS V14.01,2013-05-11 02:48:00,
2013-05-10 21:53:00,51.3,41.1,30.01,North,360,0.0,0.0,68,0.00,,---,0.00,VWS V14.01,2013-05-11 02:53:00,
2013-05-10 21:58:00,51.0,41.2,30.01,North,360,0.0,0.0,69,0.00,,---,0.00,VWS V14.01,2013-05-11 02:58:00,
2013-05-10 22:00:00,56.3,44.3,29.99,North,360,0.0,0.0,64,0.00,,---,0.00,VWS V14.01,2013-05-11 03:00:00,
2013-05-10 22:03:00,50.7,40.9,30.01,North,360,0.0,0.0,69,0.00,,---,0.00,VWS V14.01,2013-05-11 03:03:00,
2013-05-10 22:08:00,50.4,40.6,30.01,North,360,0.0,0.0,69,0.00,,---,0.00,VWS V14.01,2013-05-11 03:08:00,
2013-05-10 22:13:00,50.5,41.5,30.01,North,360,0.0,0.0,71,0.00,,---,0.00,VWS V14.01,2013-05-11 03:13:00,
2013-05-10 22:18:00,51.0,41.9,30.03,North,360,0.0,0.0,71,0.00,,---,0.00,VWS V14.01,2013-05-11 03:18:00,
2013-05-10 22:23:00,50.8,41.8,30.03,North,360,0.0,0.0,71,0.00,,---,0.00,VWS V14.01,2013-05-11 03:23:00,
2013-05-10 22:28:00,50.7,42.0,30.03,North,360,0.0,0.0,72,0.00,,---,0.00,VWS V14.01,2013-05-11 03:28:00,
2013-05-10 22:30:00,52.9,41.9,30.00,North,360,0.0,0.0,66,0.00,,---,0.00,VWS V14.01,2013-05-11 03:30:00,
2013-05-10 22:33:00,50.5,41.8,30.03,North,360,0.0,0.0,72,0.00,,---,0.00,VWS V14.01,2013-05-11 03:33:00,
2013-05-10 22:38:00,50.4,42.1,30.03,North,360,0.0,0.0,73,0.00,,---,0.00,VWS V14.01,2013-05-11 03:38:00,
2013-05-10 22:43:00,50.4,42.1,30.03,North,360,0.0,0.0,73,0.00,,---,0.00,VWS V14.01,2013-05-11 03:43:00,
2013-05-10 22:48:00,50.8,42.8,30.03,North,360,0.0,0.0,74,0.00,,---,0.00,VWS V14.01,2013-05-11 03:48:00,
2013-05-10 22:53:00,50.8,42.8,30.03,North,360,0.0,0.0,74,0.00,,---,0.00,VWS V14.01,2013-05-11 03:53:00,
2013-05-10 22:58:00,50.5,42.5,30.03,North,360,0.0,0.0,74,0.00,,---,0.00,VWS V14.01,2013-05-11 03:58:00,
2013-05-10 23:00:00,50.8,41.0,30.01,North,360,0.0,0.0,69,0.00,,---,0.00,VWS V14.01,2013-05-11 04:00:00,
2013-05-10 23:01:00,50.4,42.4,30.03,North,360,0.0,0.0,74,0.00,,---,0.00,VWS V14.01,2013-05-11 04:01:00,
2013-05-10 23:06:00,49.9,42.0,30.03,North,360,0.0,0.0,74,0.00,,---,0.00,VWS V14.01,2013-05-11 04:06:00,
2013-05-10 23:11:00,49.8,42.2,30.03,North,360,0.0,0.0,75,0.00,,---,0.00,VWS V14.01,2013-05-11 04:11:00,
2013-05-10 23:16:00,49.5,41.9,30.03,North,360,0.0,0.0,75,0.00,,---,0.00,VWS V14.01,2013-05-11 04:16:00,
2013-05-10 23:21:00,49.4,42.2,30.03,North,360,0.0,0.0,76,0.00,,---,0.00,VWS V14.01,2013-05-11 04:21:00,
2013-05-10 23:26:00,49.4,42.2,30.03,North,360,0.0,0.0,76,0.00,,---,0.00,VWS V14.01,2013-05-11 04:26:00,
2013-05-10 23:30:00,50.5,41.8,30.03,North,360,0.0,0.0,72,0.00,,---,0.00,VWS V14.01,2013-05-11 04:30:00,
2013-05-10 23:31:00,49.1,41.9,30.03,North,360,0.0,0.0,76,0.00,,---,0.00,VWS V14.01,2013-05-11 04:31:00,
2013-05-10 23:36:00,48.9,42.0,30.03,North,360,0.0,0.0,77,0.00,,---,0.00,VWS V14.01,2013-05-11 04:36:00,
2013-05-10 23:41:00,48.6,41.7,30.03,North,360,0.0,0.0,77,0.00,,---,0.00,VWS V14.01,2013-05-11 04:41:00,
2013-05-10 23:46:00,48.5,41.6,30.03,North,360,0.0,0.0,77,0.00,,---,0.00,VWS V14.01,2013-05-11 04:46:00,
2013-05-10 23:51:00,48.2,41.3,30.03,North,360,0.0,0.0,77,0.00,,---,0.00,VWS V14.01,2013-05-11 04:51:00,
2013-05-10 23:56:00,48.0,41.5,30.03,North,360,0.0,0.0,78,0.00,,---,0.00,VWS V14.01,2013-05-11 04:56:00,